Time;durP1;ratioP1;P1;durP2;ratioP2;P2;SDS_P1;SDS_P2;PMS_P1;PMS_P2;Temp;Humidity;BMP_temperature;BMP_pressure;BME280_temperature;BME280_humidity;BME280_pressure;Samples;Min_cycle;Max_cycle;Signal;HPM_P1;HPM_P2
2023/06/10 00:01:20;;;;;;;12.93;7.72;;;27.70;99.90;;;;;;1969785;71;21407;-88
2023/06/10 00:03:52;;;;;;;10.28;7.15;;;27.70;99.90;;;;;;1958013;72;21127;-91
2023/06/10 00:06:24;;;;;;;15.13;7.62;;;27.70;99.90;;;;;;1901519;74;21581;-88
2023/06/10 00:08:55;;;;;;;11.22;7.05;;;27.70;99.90;;;;;;1968779;72;21185;-89
2023/06/10 00:12:17;;;;;;;;;;;;;;;;;;;;;
2023/06/10 00:14:44;;;;;;;11.28;7.60;;;27.70;99.90;;;;;;1961044;71;21216;-89
2023/06/10 00:17:15;;;;;;;12.15;7.95;;;27.70;99.90;;;;;;1976880;71;21135;-88
2023/06/10 00:19:46;;;;;;;12.25;7.58;;;27.80;99.90;;;;;;1978093;72;21103;-88
2023/06/10 00:22:18;;;;;;;12.95;8.88;;;27.80;99.90;;;;;;1963558;71;21139;-89
2023/06/10 00:24:49;;;;;;;15.65;9.10;;;27.80;99.90;;;;;;1973337;71;21067;-89
2023/06/10 00:27:21;;;;;;;15.70;7.83;;;27.80;99.90;;;;;;1970278;71;21104;-89
2023/06/10 00:29:53;;;;;;;18.07;8.83;;;27.80;99.90;;;;;;1965556;71;21150;-89
2023/06/10 00:32:33;;;;;;;13.80;7.50;;;27.80;99.90;;;;;;1959700;72;21681;-89
2023/06/10 00:34:59;;;;;;;13.15;7.58;;;27.90;99.90;;;;;;1954117;71;21099;-89
2023/06/10 00:37:40;;;;;;;14.07;8.30;;;27.90;99.90;;;;;;1955583;71;21707;-88
2023/06/10 00:40:12;;;;;;;10.82;8.23;;;28.00;99.90;;;;;;1957543;71;21161;-78
2023/06/10 00:42:43;;;;;;;12.65;8.33;;;28.00;99.90;;;;;;1937114;73;21184;-78
2023/06/10 00:45:14;;;;;;;16.02;9.05;;;28.00;99.90;;;;;;1966538;71;21134;-78
2023/06/10 00:47:46;;;;;;;26.42;8.93;;;28.10;99.90;;;;;;1962105;72;21404;-78
2023/06/10 00:50:18;;;;;;;23.95;8.68;;;28.10;99.90;;;;;;1963986;71;21290;-80
2023/06/10 00:52:49;;;;;;;16.65;7.65;;;28.10;99.90;;;;;;1964208;70;21150;-77
2023/06/10 00:55:21;;;;;;;15.18;8.40;;;28.10;99.90;;;;;;1953992;72;21175;-77
2023/06/10 00:57:53;;;;;;;27.05;8.85;;;28.20;99.90;;;;;;1930768;73;21757;-78
2023/06/10 01:00:27;;;;;;;13.83;7.30;;;28.10;99.90;;;;;;1949696;72;21067;-82
2023/06/10 01:02:58;;;;;;;15.75;8.35;;;28.20;99.90;;;;;;1964789;71;21156;-78
2023/06/10 01:05:30;;;;;;;29.20;10.10;;;28.20;99.90;;;;;;1960026;71;21219;-77
2023/06/10 01:08:12;;;;;;;19.98;8.05;;;28.20;99.90;;;;;;1975538;71;21150;-79
2023/06/10 01:10:52;;;;;;;18.40;10.63;;;28.20;99.90;;;;;;1916712;74;21138;-80
2023/06/10 01:13:28;;;;;;;20.43;10.20;;;28.20;99.90;;;;;;1980707;70;21162;-78
2023/06/10 01:15:59;;;;;;;28.02;10.25;;;28.20;99.90;;;;;;1962909;73;21189;-80
2023/06/10 01:18:33;;;;;;;46.40;11.75;;;28.30;99.90;;;;;;1969723;72;21074;-80
2023/06/10 01:21:07;;;;;;;50.33;12.35;;;28.30;99.90;;;;;;1915826;72;21194;-75
2023/06/10 01:23:38;;;;;;;36.58;11.33;;;28.40;99.90;;;;;;1934364;72;21166;-78
2023/06/10 01:26:59;;;;;;;;;;;;;;;;;;;;;
2023/06/10 01:29:31;;;;;;;44.00;11.53;;;28.50;99.90;;;;;;1792121;76;21323;-85
2023/06/10 01:32:11;;;;;;;50.78;12.37;;;28.50;99.90;;;;;;1914418;73;21451;-86
2023/06/10 01:34:44;;;;;;;73.97;15.23;;;28.50;99.90;;;;;;1924085;73;21225;-85
2023/06/10 01:37:22;;;;;;;46.80;11.68;;;28.60;99.90;;;;;;1918840;73;21162;-84
2023/06/10 01:39:55;;;;;;;26.02;10.05;;;28.60;99.90;;;;;;1916642;74;21099;-86
2023/06/10 01:42:28;;;;;;;28.10;10.75;;;28.70;99.90;;;;;;1902589;73;21163;-84
2023/06/10 01:45:00;;;;;;;32.90;10.40;;;28.70;99.90;;;;;;1918872;74;21186;-85
2023/06/10 01:47:31;;;;;;;18.10;8.43;;;28.70;99.90;;;;;;1882090;74;21127;-83
2023/06/10 01:50:02;;;;;;;17.52;8.30;;;28.70;99.90;;;;;;1871607;75;21208;-85
2023/06/10 01:52:34;;;;;;;10.25;7.05;;;28.70;99.90;;;;;;1967613;71;22367;-84
2023/06/10 01:55:06;;;;;;;15.35;7.83;;;28.70;99.90;;;;;;1962021;72;21115;-85
2023/06/10 01:57:38;;;;;;;17.05;8.30;;;28.70;99.90;;;;;;1967985;72;21219;-85
2023/06/10 02:00:13;;;;;;;10.08;7.83;;;28.70;99.90;;;;;;1969248;71;21072;-85
2023/06/10 02:02:45;;;;;;;21.57;7.78;;;28.70;99.90;;;;;;1954592;71;21099;-86
2023/06/10 02:05:17;;;;;;;23.35;7.85;;;28.70;99.90;;;;;;1948968;72;21764;-85
2023/06/10 02:07:50;;;;;;;14.35;8.30;;;28.80;99.90;;;;;;1949193;72;21580;-84
2023/06/10 02:10:21;;;;;;;14.45;7.03;;;28.90;99.90;;;;;;1948637;71;21184;-85
2023/06/10 02:13:24;;;;;;;17.55;7.80;;;28.90;99.90;;;;;;1970515;71;21142;-84
2023/06/10 02:19:27;;;;;;;;;;;;;;;;;;;;;
2023/06/10 02:22:00;;;;;;;23.55;8.55;;;29.20;99.90;;;;;;1935332;71;21124;-86
2023/06/10 02:24:47;;;;;;;19.60;7.17;;;29.20;99.90;;;;;;1979471;71;21131;-84
2023/06/10 02:27:17;;;;;;;;;;;29.30;99.90;;;;;;1967780;72;21197;-86
2023/06/10 02:29:48;;;;;;;33.78;10.82;;;29.30;99.90;;;;;;1922392;74;20176;-84
2023/06/10 02:32:20;;;;;;;16.07;8.50;;;29.40;99.90;;;;;;1968339;71;21255;-85
2023/06/10 02:34:57;;;;;;;24.47;8.33;;;29.40;99.90;;;;;;1976268;71;21127;-85
2023/06/10 02:37:35;;;;;;;31.27;9.43;;;29.60;99.90;;;;;;1964327;71;21212;-86
2023/06/10 02:40:10;;;;;;;49.80;11.48;;;29.70;99.90;;;;;;1974245;71;21065;-84
2023/06/10 02:42:44;;;;;;;32.33;9.88;;;29.80;99.90;;;;;;1925649;73;21158;-85
2023/06/10 02:45:17;;;;;;;28.67;9.08;;;29.90;99.90;;;;;;1907775;74;21291;-86
2023/06/10 02:47:48;;;;;;;64.85;13.20;;;29.90;99.90;;;;;;1901019;74;21568;-84
2023/06/10 02:50:22;;;;;;;32.10;9.00;;;30.00;99.90;;;;;;1924059;74;21130;-83
2023/06/10 02:52:55;;;;;;;27.45;9.40;;;30.00;99.90;;;;;;1888518;74;21091;-84
2023/06/10 02:55:36;;;;;;;47.53;11.73;;;30.00;99.90;;;;;;1972752;71;21234;-83
2023/06/10 02:58:12;;;;;;;27.70;9.10;;;30.00;99.90;;;;;;1930157;72;21080;-83
2023/06/10 03:00:47;;;;;;;15.38;7.55;;;30.00;99.90;;;;;;1937478;72;21442;-84
2023/06/10 03:06:52;;;;;;;29.35;8.40;;;30.00;99.90;;;;;;1804613;77;21268;-85
2023/06/10 03:09:29;;;;;;;20.62;7.55;;;30.10;99.90;;;;;;1856658;76;21124;-84
2023/06/10 03:12:05;;;;;;;18.27;7.67;;;30.10;99.90;;;;;;1822466;77;21220;-84
2023/06/10 03:14:45;;;;;;;;;;;30.20;99.90;;;;;;1857902;76;21130;-86
2023/06/10 03:17:28;;;;;;;16.80;7.08;;;30.20;99.90;;;;;;1966082;71;20203;-85
2023/06/10 03:19:57;;;;;;;12.15;7.28;;;30.30;99.90;;;;;;1969592;71;21156;-86
2023/06/10 03:22:32;;;;;;;10.68;7.12;;;30.50;99.90;;;;;;1962089;71;21099;-84
2023/06/10 03:25:02;;;;;;;10.95;7.00;;;30.60;99.90;;;;;;1967603;71;21763;-86
2023/06/10 03:27:56;;;;;;;17.62;7.50;;;30.80;99.90;;;;;;1958114;71;21139;-88
2023/06/10 03:30:31;;;;;;;13.28;7.30;;;31.00;99.90;;;;;;1967084;71;21184;-84
2023/06/10 03:33:03;;;;;;;60.03;10.13;;;31.10;99.90;;;;;;1968011;71;21060;-87
2023/06/10 03:35:39;;;;;;;32.05;8.53;;;31.10;99.90;;;;;;1962713;71;21177;-84
2023/06/10 03:38:15;;;;;;;11.33;7.10;;;31.10;99.90;;;;;;1958479;71;21005;-85
2023/06/10 03:40:50;;;;;;;12.63;7.22;;;31.10;99.90;;;;;;1965034;71;21226;-86
2023/06/10 03:43:18;;;;;;;15.35;7.65;;;31.10;99.90;;;;;;1961881;71;21148;-83
2023/06/10 03:45:56;;;;;;;14.68;6.90;;;31.10;99.90;;;;;;1968755;71;21296;-83
2023/06/10 03:48:27;;;;;;;24.25;8.75;;;31.10;99.90;;;;;;1968105;71;21047;-83
2023/06/10 03:51:01;;;;;;;13.60;7.40;;;31.10;99.90;;;;;;1985532;71;21122;-84
2023/06/10 03:53:37;;;;;;;17.23;8.58;;;31.20;99.90;;;;;;1936129;71;21064;-85
2023/06/10 03:56:05;;;;;;;11.68;6.40;;;31.20;99.90;;;;;;1923686;72;21171;-85
2023/06/10 03:58:48;;;;;;;8.90;6.25;;;31.40;99.90;;;;;;1972589;71;21142;-85
2023/06/10 04:01:29;;;;;;;11.40;6.55;;;31.60;99.90;;;;;;1961536;71;21159;-84
2023/06/10 04:04:07;;;;;;;18.62;7.80;;;31.70;99.90;;;;;;1965304;71;21421;-84
2023/06/10 04:06:38;;;;;;;101.40;14.85;;;31.90;99.90;;;;;;1961194;72;21145;-86
2023/06/10 04:09:13;;;;;;;21.15;8.28;;;32.00;99.90;;;;;;1972996;71;21121;-74
2023/06/10 04:11:49;;;;;;;20.43;7.87;;;32.10;99.90;;;;;;1960886;71;21097;-78
2023/06/10 04:14:24;;;;;;;45.20;11.85;;;32.20;99.90;;;;;;1946228;71;21209;-75
2023/06/10 04:16:55;;;;;;;14.00;6.67;;;32.30;99.90;;;;;;1960075;71;21205;-74
2023/06/10 04:19:26;;;;;;;27.85;7.53;;;32.40;99.90;;;;;;1945214;72;21123;-77
2023/06/10 04:22:08;;;;;;;13.83;7.10;;;32.40;99.90;;;;;;1954406;71;21583;-77
2023/06/10 04:24:45;;;;;;;12.07;6.60;;;32.30;99.90;;;;;;1938165;71;21766;-74
2023/06/10 04:27:17;;;;;;;31.48;8.35;;;32.30;99.90;;;;;;1951474;72;21177;-75
2023/06/10 04:29:48;;;;;;;24.67;6.75;;;32.20;99.90;;;;;;1971089;71;21581;-77
2023/06/10 04:32:20;;;;;;;8.80;5.78;;;32.30;99.90;;;;;;1964354;73;21185;-78
2023/06/10 04:35:00;;;;;;;10.32;6.42;;;32.40;99.90;;;;;;1933274;73;21155;-77
2023/06/10 04:37:31;;;;;;;17.55;6.83;;;32.50;99.90;;;;;;1937220;73;21080;-76
2023/06/10 04:40:03;;;;;;;17.37;6.78;;;32.60;99.90;;;;;;1914534;74;21181;-75
2023/06/10 04:42:34;;;;;;;12.20;6.15;;;32.70;99.80;;;;;;1967932;71;21578;-75
2023/06/10 04:45:06;;;;;;;14.47;6.30;;;32.80;99.30;;;;;;1969965;71;21644;-76
2023/06/10 04:47:38;;;;;;;15.20;6.10;;;32.90;99.30;;;;;;1958019;73;21151;-76
2023/06/10 04:50:10;;;;;;;28.25;7.00;;;33.10;99.10;;;;;;1970879;72;21814;-75
2023/06/10 04:52:46;;;;;;;15.10;5.60;;;33.10;98.90;;;;;;1969347;71;21078;-77
2023/06/10 04:55:13;;;;;;;12.30;6.20;;;33.30;98.30;;;;;;1998903;71;21629;-78
2023/06/10 04:57:55;;;;;;;33.33;8.03;;;33.30;98.30;;;;;;1989537;71;21024;-78
2023/06/10 05:00:29;;;;;;;12.15;5.40;;;33.40;98.50;;;;;;1952216;72;21245;-78
2023/06/10 05:03:00;;;;;;;12.60;6.00;;;33.50;98.60;;;;;;1965312;71;21225;-75
2023/06/10 05:05:34;;;;;;;9.25;5.20;;;33.50;97.80;;;;;;1931357;73;21504;-78
2023/06/10 05:08:08;;;;;;;8.68;5.20;;;33.60;97.70;;;;;;1962551;71;21146;-75
2023/06/10 05:10:39;;;;;;;9.68;5.33;;;33.60;97.70;;;;;;1964992;71;21060;-76
2023/06/10 05:13:10;;;;;;;9.28;5.80;;;33.50;97.60;;;;;;1957087;71;21104;-76
2023/06/10 05:16:09;;;;;;;10.10;5.50;;;33.50;97.60;;;;;;1970492;71;21236;-79
2023/06/10 05:18:57;;;;;;;8.93;5.53;;;33.50;97.10;;;;;;1903873;71;21202;-76
2023/06/10 05:21:28;;;;;;;11.70;6.40;;;33.50;97.10;;;;;;1964617;72;21102;-76
2023/06/10 05:24:00;;;;;;;9.50;4.85;;;33.60;97.10;;;;;;1978115;71;21122;-73
2023/06/10 05:26:37;;;;;;;13.15;6.85;;;33.60;96.60;;;;;;1981226;72;21377;-75
2023/06/10 05:29:07;;;;;;;9.20;5.20;;;33.70;96.90;;;;;;1961880;71;21216;-77
2023/06/10 05:31:38;;;;;;;13.15;6.42;;;33.70;96.60;;;;;;1901464;74;21643;-75
2023/06/10 05:34:09;;;;;;;11.22;5.58;;;33.80;97.00;;;;;;1912487;74;21530;-76
2023/06/10 05:36:40;;;;;;;6.65;5.58;;;33.80;96.50;;;;;;1924635;73;21198;-76
2023/06/10 05:39:12;;;;;;;9.43;5.10;;;33.80;95.90;;;;;;1925316;73;21103;-78
2023/06/10 05:41:42;;;;;;;10.05;5.60;;;33.80;96.00;;;;;;1916420;75;21197;-75
2023/06/10 05:44:13;;;;;;;36.28;7.85;;;33.80;96.10;;;;;;1943465;73;21083;-76
2023/06/10 05:46:45;;;;;;;10.50;5.67;;;33.80;96.60;;;;;;1933131;72;21122;-76
2023/06/10 05:49:16;;;;;;;11.33;5.15;;;33.80;96.20;;;;;;1967296;73;21047;-75
2023/06/10 05:51:48;;;;;;;12.47;6.15;;;33.70;96.50;;;;;;1965133;72;21111;-77
2023/06/10 05:54:20;;;;;;;7.03;4.72;;;33.60;96.50;;;;;;1952316;71;21142;-76
2023/06/10 05:56:51;;;;;;;9.20;5.12;;;33.50;96.10;;;;;;1965315;72;21071;-77
2023/06/10 05:59:22;;;;;;;10.68;5.20;;;33.40;96.60;;;;;;1967057;72;21614;-76
2023/06/10 06:01:54;;;;;;;10.68;5.72;;;33.40;96.50;;;;;;1939771;72;21197;-79
2023/06/10 06:04:25;;;;;;;13.30;5.95;;;33.40;96.80;;;;;;1933796;73;21124;-76
2023/06/10 06:06:57;;;;;;;11.15;5.25;;;33.50;96.30;;;;;;1970969;72;21064;-77
2023/06/10 06:09:29;;;;;;;8.48;5.12;;;33.50;95.70;;;;;;1920928;73;21154;-79
2023/06/10 06:12:00;;;;;;;14.70;7.15;;;33.50;95.90;;;;;;1953696;71;21044;-78
2023/06/10 06:14:32;;;;;;;30.43;9.18;;;33.50;96.20;;;;;;1962008;73;21043;-79
2023/06/10 06:17:03;;;;;;;32.23;8.20;;;33.60;96.70;;;;;;1970314;72;21127;-77
2023/06/10 06:19:35;;;;;;;36.85;8.83;;;33.60;96.40;;;;;;1962739;71;21637;-75
2023/06/10 06:22:06;;;;;;;23.35;7.75;;;33.60;96.00;;;;;;1947030;71;21128;-77
2023/06/10 06:24:37;;;;;;;11.68;6.87;;;33.60;96.00;;;;;;1955717;72;21096;-76
2023/06/10 06:27:09;;;;;;;10.55;6.12;;;33.50;95.90;;;;;;1958880;73;21605;-75
2023/06/10 06:29:40;;;;;;;11.85;6.25;;;33.50;95.80;;;;;;1965569;73;21672;-75
2023/06/10 06:32:12;;;;;;;12.63;6.50;;;33.50;96.10;;;;;;1950731;73;21570;-76
2023/06/10 06:34:43;;;;;;;12.43;7.17;;;33.50;96.00;;;;;;1964862;72;21134;-76
2023/06/10 06:37:14;;;;;;;11.85;5.60;;;33.50;96.30;;;;;;1977092;72;21121;-76
2023/06/10 06:39:45;;;;;;;33.45;8.25;;;33.60;95.70;;;;;;1918023;73;21177;-76
2023/06/10 06:42:17;;;;;;;13.38;5.87;;;33.60;95.90;;;;;;1906728;74;21136;-76
2023/06/10 06:44:48;;;;;;;35.63;10.50;;;33.70;96.20;;;;;;1924043;74;21174;-76
2023/06/10 06:47:20;;;;;;;18.87;7.00;;;33.70;96.20;;;;;;1974017;72;21221;-77
2023/06/10 06:49:51;;;;;;;13.50;6.10;;;33.70;96.20;;;;;;1961254;72;21131;-76
2023/06/10 06:52:22;;;;;;;21.65;8.20;;;33.60;95.40;;;;;;1964071;72;21154;-78
2023/06/10 06:54:54;;;;;;;54.93;13.10;;;33.40;95.80;;;;;;1933779;72;21496;-76
2023/06/10 06:57:25;;;;;;;16.57;7.87;;;33.40;96.10;;;;;;1950267;71;21139;-78
2023/06/10 06:59:56;;;;;;;12.85;6.62;;;33.40;96.20;;;;;;1948969;71;21180;-75
2023/06/10 07:02:28;;;;;;;12.07;5.90;;;33.40;95.90;;;;;;1961623;72;21196;-76
2023/06/10 07:04:58;;;;;;;12.18;6.10;;;33.40;95.80;;;;;;1980912;72;21575;-76
2023/06/10 07:07:30;;;;;;;14.83;6.92;;;33.50;95.80;;;;;;1911915;74;21121;-77
2023/06/10 07:10:02;;;;;;;32.20;9.03;;;33.50;95.40;;;;;;1959794;72;21068;-77
2023/06/10 07:12:33;;;;;;;17.32;6.70;;;33.60;95.70;;;;;;1966309;73;21135;-77
2023/06/10 07:15:04;;;;;;;8.65;6.08;;;33.70;95.50;;;;;;1970653;71;21063;-78
2023/06/10 07:17:36;;;;;;;20.72;7.30;;;33.70;95.40;;;;;;1932036;73;21637;-78
2023/06/10 07:20:08;;;;;;;18.20;7.53;;;33.70;95.50;;;;;;1968549;72;21059;-77
2023/06/10 07:22:39;;;;;;;17.23;7.03;;;33.80;95.70;;;;;;1932195;73;21240;-77
2023/06/10 07:25:10;;;;;;;15.53;6.58;;;33.80;95.40;;;;;;1959201;72;21149;-77
2023/06/10 07:27:42;;;;;;;15.00;6.83;;;33.70;95.40;;;;;;1972763;72;21202;-76
2023/06/10 07:30:15;;;;;;;15.38;6.85;;;33.70;95.70;;;;;;1980607;72;21554;-76
2023/06/10 07:32:46;;;;;;;9.93;6.03;;;33.60;95.90;;;;;;1976332;72;21064;-76
2023/06/10 07:35:17;;;;;;;13.25;6.85;;;33.60;96.10;;;;;;1939768;71;21074;-75
2023/06/10 07:37:49;;;;;;;20.90;7.33;;;33.60;95.80;;;;;;1971822;71;21154;-75
2023/06/10 07:40:25;;;;;;;15.70;7.20;;;33.60;95.40;;;;;;1967109;71;21064;-76
2023/06/10 07:42:57;;;;;;;19.25;7.33;;;33.70;95.30;;;;;;1974237;72;21117;-75
2023/06/10 07:45:28;;;;;;;15.70;6.97;;;33.70;95.60;;;;;;1958960;72;21169;-75
2023/06/10 07:56:07;;;;;;;69.85;11.95;;;33.50;95.50;;;;;;1909043;73;21211;-74
2023/06/10 07:58:48;;;;;;;;;;;;;;;;;;;;;
2023/06/10 08:01:30;;;;;;;24.43;8.08;;;33.40;95.20;;;;;;1976431;71;21214;-74
2023/06/10 08:04:01;;;;;;;16.90;6.70;;;33.50;95.40;;;;;;1991722;71;21052;-77
2023/06/10 08:06:34;;;;;;;17.23;6.53;;;33.50;95.40;;;;;;1995088;71;21079;-77
2023/06/10 08:09:06;;;;;;;14.73;7.20;;;33.50;95.50;;;;;;1932729;73;21045;-76
2023/06/10 08:11:37;;;;;;;25.40;7.95;;;33.50;95.10;;;;;;1960038;72;21108;-77
2023/06/10 08:14:08;;;;;;;11.57;5.97;;;33.50;95.20;;;;;;1907016;74;21122;-78
2023/06/10 08:16:40;;;;;;;17.73;6.87;;;33.60;94.80;;;;;;1939372;73;21115;-80
2023/06/10 08:19:12;;;;;;;26.60;7.87;;;33.60;95.30;;;;;;1990155;72;21083;-73
2023/06/10 08:21:44;;;;;;;14.63;7.67;;;33.70;95.10;;;;;;1984641;72;21107;-74
2023/06/10 08:24:17;;;;;;;15.53;6.53;;;33.80;95.10;;;;;;1945273;74;21096;-71
2023/06/10 08:26:49;;;;;;;17.02;6.90;;;33.70;95.20;;;;;;1927775;73;21072;-76
2023/06/10 08:29:20;;;;;;;14.47;6.40;;;33.80;95.20;;;;;;1948147;71;21143;-74
2023/06/10 08:31:52;;;;;;;17.52;6.97;;;33.70;95.30;;;;;;1988735;71;21094;-75
2023/06/10 08:34:24;;;;;;;13.08;6.00;;;33.70;95.60;;;;;;1985761;71;21072;-76
2023/06/10 08:36:55;;;;;;;42.55;8.95;;;33.70;95.10;;;;;;1957596;71;21127;-75
2023/06/10 08:39:26;;;;;;;21.55;8.05;;;33.60;95.30;;;;;;1983548;70;21108;-75
2023/06/10 08:42:03;;;;;;;19.75;7.20;;;33.50;95.40;;;;;;1984469;71;21119;-75
2023/06/10 08:44:37;;;;;;;28.92;7.22;;;33.50;95.50;;;;;;1989786;71;21644;-74
2023/06/10 08:47:15;;;;;;;21.75;6.37;;;33.50;95.50;;;;;;1969055;71;21102;-75
2023/06/10 08:49:48;;;;;;;35.92;8.93;;;33.50;95.60;;;;;;1983206;71;21053;-76
2023/06/10 08:52:21;;;;;;;15.43;6.10;;;33.50;95.90;;;;;;1978769;71;21047;-76
2023/06/10 08:55:03;;;;;;;20.85;7.15;;;33.40;95.60;;;;;;1945676;72;21617;-76
2023/06/10 08:57:35;;;;;;;15.88;6.72;;;33.40;95.90;;;;;;1896855;73;21119;-79
2023/06/10 09:00:07;;;;;;;20.17;7.03;;;33.40;95.60;;;;;;1916619;75;21224;-76
2023/06/10 09:02:39;;;;;;;47.08;10.48;;;33.40;95.50;;;;;;1904793;74;21100;-74
2023/06/10 09:05:11;;;;;;;27.05;8.13;;;33.40;95.70;;;;;;1923902;74;21072;-74
2023/06/10 09:07:43;;;;;;;31.12;8.20;;;33.40;95.10;;;;;;1942627;73;21185;-78
2023/06/10 09:10:15;;;;;;;23.95;6.92;;;33.40;95.50;;;;;;1983592;71;21253;-76
2023/06/10 09:12:47;;;;;;;15.13;5.97;;;33.40;95.10;;;;;;1944192;72;21089;-75
2023/06/10 09:15:18;;;;;;;12.82;6.10;;;33.40;95.10;;;;;;1918797;73;21519;-79
2023/06/10 09:17:51;;;;;;;16.27;6.00;;;33.40;95.10;;;;;;1986613;71;21204;-77
2023/06/10 09:20:22;;;;;;;15.20;6.00;;;33.30;95.00;;;;;;1976401;72;21088;-75
2023/06/10 09:22:54;;;;;;;30.62;7.05;;;33.30;95.20;;;;;;1985282;72;21189;-73
2023/06/10 09:25:27;;;;;;;22.25;7.17;;;33.30;95.50;;;;;;2000387;71;21064;-74
2023/06/10 09:27:59;;;;;;;38.75;9.98;;;33.20;95.80;;;;;;1945080;73;21183;-73
2023/06/10 09:30:34;;;;;;;34.18;9.93;;;33.10;95.70;;;;;;1960216;73;21807;-75
2023/06/10 09:33:17;;;;;;;33.48;7.62;;;33.10;96.10;;;;;;1910633;74;21076;-73
2023/06/10 09:35:50;;;;;;;21.80;8.23;;;33.10;95.80;;;;;;1995332;72;21033;-73
2023/06/10 09:38:26;;;;;;;103.67;16.12;;;33.00;96.00;;;;;;1995607;71;21115;-75
2023/06/10 09:40:57;;;;;;;26.52;8.83;;;33.00;96.00;;;;;;2008643;70;21166;-74
2023/06/10 09:43:46;;;;;;;15.10;6.95;;;33.00;96.10;;;;;;1979472;71;21146;-73
2023/06/10 09:46:19;;;;;;;19.12;7.83;;;33.10;95.80;;;;;;2003448;71;21136;-73
2023/06/10 09:48:50;;;;;;;27.27;10.63;;;33.00;95.70;;;;;;2002346;71;21064;-72
2023/06/10 09:51:22;;;;;;;220.45;21.15;;;33.00;95.90;;;;;;1997146;71;21713;-73
2023/06/10 09:53:54;;;;;;;43.45;7.95;;;33.00;95.90;;;;;;1924473;73;21115;-73
2023/06/10 09:56:29;;;;;;;21.52;5.53;;;32.80;96.20;;;;;;1948717;72;21201;-74
2023/06/10 09:59:09;;;;;;;36.83;7.03;;;32.70;96.50;;;;;;1963660;72;21081;-74
2023/06/10 10:01:40;;;;;;;26.07;5.17;;;32.40;96.80;;;;;;1923259;73;21139;-74
2023/06/10 10:04:12;;;;;;;27.55;5.83;;;32.20;97.30;;;;;;1945900;73;21236;-73
2023/06/10 10:06:44;;;;;;;29.15;4.97;;;32.10;97.10;;;;;;1976322;72;21068;-74
2023/06/10 10:09:16;;;;;;;23.05;5.05;;;31.90;97.30;;;;;;1936268;72;21130;-74
2023/06/10 10:11:49;;;;;;;33.88;5.62;;;31.70;97.10;;;;;;1891767;74;21185;-75
2023/06/10 10:14:20;;;;;;;25.57;5.60;;;31.50;97.30;;;;;;1898475;74;21100;-74
2023/06/10 10:16:54;;;;;;;20.23;5.92;;;31.40;97.40;;;;;;1920514;74;21141;-82
2023/06/10 10:19:30;;;;;;;17.92;4.10;;;31.30;97.60;;;;;;1873166;76;21117;-80
2023/06/10 10:22:05;;;;;;;36.60;7.83;;;31.20;97.20;;;;;;1956022;72;21069;-82
2023/06/10 10:24:41;;;;;;;15.32;3.87;;;31.20;97.70;;;;;;1945407;74;21124;-81
2023/06/10 10:27:15;;;;;;;8.05;3.25;;;31.20;97.40;;;;;;1939796;73;21587;-82
2023/06/10 10:29:48;;;;;;;15.18;4.47;;;31.20;97.30;;;;;;1986650;71;21127;-81
2023/06/10 10:32:21;;;;;;;13.93;3.50;;;31.10;97.20;;;;;;1985407;72;21096;-80
2023/06/10 10:34:56;;;;;;;6.50;2.65;;;31.00;97.10;;;;;;1985708;72;21461;-80
2023/06/10 10:37:28;;;;;;;8.50;3.12;;;31.00;97.40;;;;;;1984833;72;21116;-81
2023/06/10 10:40:00;;;;;;;10.98;3.15;;;30.90;97.70;;;;;;1985726;72;21496;-81
2023/06/10 10:42:33;;;;;;;6.17;2.25;;;30.80;99.00;;;;;;1985166;72;21527;-81
2023/06/10 10:45:05;;;;;;;23.92;4.15;;;30.60;99.50;;;;;;1947729;74;21140;-81
2023/06/10 10:47:40;;;;;;;13.65;2.22;;;30.50;99.70;;;;;;1940332;73;21131;-81
2023/06/10 10:50:20;;;;;;;9.00;2.40;;;30.40;99.80;;;;;;1951069;73;21130;-82
2023/06/10 10:52:57;;;;;;;4.40;1.72;;;30.30;99.90;;;;;;1969606;71;21523;-80
2023/06/10 10:55:29;;;;;;;3.87;1.60;;;30.30;99.90;;;;;;1985877;72;21072;-81
2023/06/10 10:58:02;;;;;;;4.12;1.85;;;30.20;99.90;;;;;;1985310;72;21032;-81
2023/06/10 11:00:36;;;;;;;5.28;1.87;;;30.10;99.90;;;;;;1946626;73;21120;-81
2023/06/10 11:03:08;;;;;;;3.95;1.80;;;30.00;99.90;;;;;;1938252;73;21045;-80
2023/06/10 11:05:47;;;;;;;4.62;1.70;;;30.00;99.90;;;;;;1948379;73;21158;-81
2023/06/10 11:08:35;;;;;;;7.50;2.12;;;29.90;99.90;;;;;;1983529;72;21095;-80
2023/06/10 11:11:17;;;;;;;6.17;2.00;;;29.80;99.90;;;;;;1945780;74;21603;-80
2023/06/10 11:14:06;;;;;;;4.12;2.00;;;29.70;99.90;;;;;;1938253;73;21057;-80
2023/06/10 11:17:00;;;;;;;7.90;1.62;;;29.60;99.90;;;;;;1984170;72;21099;-81
2023/06/10 11:19:36;;;;;;;4.80;1.70;;;29.50;99.90;;;;;;1877257;76;21155;-80
2023/06/10 11:22:11;;;;;;;4.22;1.52;;;29.40;99.90;;;;;;1900850;75;21055;-81
2023/06/10 11:24:42;;;;;;;4.25;1.65;;;29.30;99.90;;;;;;1876340;75;21068;-81
2023/06/10 11:27:26;;;;;;;2.77;1.57;;;29.30;99.90;;;;;;1903037;75;21616;-79
2023/06/10 11:30:07;;;;;;;3.40;1.60;;;29.20;99.90;;;;;;1915161;75;21146;-80
2023/06/10 11:32:39;;;;;;;3.27;1.22;;;29.10;99.90;;;;;;1911604;75;21075;-80
2023/06/10 11:35:10;;;;;;;3.85;1.55;;;29.00;99.90;;;;;;1876052;76;21567;-79
2023/06/10 11:37:42;;;;;;;2.47;1.47;;;28.90;99.90;;;;;;1871770;76;21775;-80
2023/06/10 11:40:14;;;;;;;8.00;1.90;;;28.80;99.90;;;;;;1912110;75;21080;-81
2023/06/10 11:42:46;;;;;;;6.30;1.70;;;28.70;99.90;;;;;;1913199;75;21131;-81
2023/06/10 11:45:17;;;;;;;2.85;1.25;;;28.60;99.90;;;;;;1912868;75;21119;-80
2023/06/10 11:47:59;;;;;;;7.50;1.85;;;28.50;99.90;;;;;;1914377;75;21656;-80
2023/06/10 11:50:35;;;;;;;5.72;1.55;;;28.40;99.90;;;;;;1914598;75;21180;-80
2023/06/10 11:53:07;;;;;;;2.85;1.10;;;28.40;99.90;;;;;;1914711;74;21132;-79
2023/06/10 11:55:49;;;;;;;6.00;1.20;;;28.40;99.90;;;;;;1876730;76;21127;-81
2023/06/10 11:58:22;;;;;;;4.58;1.57;;;28.50;99.90;;;;;;1844732;78;21067;-80
2023/06/10 12:01:01;;;;;;;5.95;1.50;;;28.50;99.90;;;;;;1877904;76;21142;-80
2023/06/10 12:03:39;;;;;;;4.62;1.42;;;28.50;99.90;;;;;;1913784;75;21216;-79
2023/06/10 12:06:10;;;;;;;5.95;1.65;;;28.50;99.90;;;;;;1876853;76;21688;-81
2023/06/10 12:08:45;;;;;;;12.43;2.67;;;28.40;99.90;;;;;;1844720;78;21088;-79
2023/06/10 12:11:17;;;;;;;3.02;1.37;;;28.40;99.90;;;;;;1873908;76;21119;-76
2023/06/10 12:13:50;;;;;;;4.20;1.52;;;28.40;99.90;;;;;;1904162;73;21112;-76
2023/06/10 12:16:22;;;;;;;5.08;1.82;;;28.40;99.90;;;;;;1931645;74;21044;-76
2023/06/10 12:18:56;;;;;;;7.70;2.42;;;28.50;99.90;;;;;;1929778;74;22196;-73
2023/06/10 12:21:27;;;;;;;5.70;1.70;;;28.40;99.90;;;;;;1930141;74;21535;-75
2023/06/10 12:24:07;;;;;;;8.90;1.90;;;28.40;99.90;;;;;;1915976;74;21145;-74
2023/06/10 12:26:41;;;;;;;6.87;1.62;;;28.40;99.90;;;;;;1916281;74;21121;-76
2023/06/10 12:29:20;;;;;;;3.15;1.87;;;28.40;99.90;;;;;;1907843;74;21601;-75
2023/06/10 12:32:07;;;;;;;5.62;1.80;;;28.40;99.90;;;;;;1885294;74;21224;-76
2023/06/10 12:34:40;;;;;;;3.33;1.75;;;28.40;99.90;;;;;;1884625;74;21080;-76
2023/06/10 12:37:15;;;;;;;8.58;2.20;;;28.40;99.90;;;;;;1855247;76;21100;-78
2023/06/10 12:39:48;;;;;;;4.67;1.87;;;28.30;99.90;;;;;;1897687;75;21656;-76
2023/06/10 12:42:23;;;;;;;4.53;2.10;;;28.20;99.90;;;;;;1892407;75;21060;-75
2023/06/10 12:45:00;;;;;;;5.90;2.20;;;28.20;99.90;;;;;;1921924;73;21432;-73
2023/06/10 12:47:42;;;;;;;5.40;1.77;;;28.20;99.90;;;;;;1930575;73;21135;-74
2023/06/10 12:50:11;;;;;;;5.22;2.00;;;28.20;99.90;;;;;;1912305;75;21196;-75
2023/06/10 12:52:43;;;;;;;4.67;1.95;;;28.10;99.90;;;;;;1876715;76;21681;-76
2023/06/10 12:55:14;;;;;;;6.10;1.95;;;28.10;99.90;;;;;;1908965;75;21079;-77
2023/06/10 12:57:52;;;;;;;5.03;1.98;;;28.10;99.90;;;;;;1914333;75;21123;-76
2023/06/10 13:00:34;;;;;;;5.15;1.95;;;28.10;99.90;;;;;;1914785;74;21143;-76
2023/06/10 13:03:02;;;;;;;5.40;3.03;;;28.10;99.90;;;;;;1916728;73;21129;-76
2023/06/10 13:05:38;;;;;;;9.43;2.50;;;28.10;99.90;;;;;;1927162;73;21777;-76
2023/06/10 13:08:11;;;;;;;5.42;2.40;;;28.10;99.90;;;;;;1929308;73;21048;-75
2023/06/10 13:10:42;;;;;;;8.08;3.20;;;28.20;99.90;;;;;;1840728;77;21609;-76
2023/06/10 13:13:14;;;;;;;4.90;2.30;;;28.20;99.90;;;;;;1893495;74;21068;-76
2023/06/10 13:15:45;;;;;;;4.78;2.50;;;28.20;99.90;;;;;;1876133;74;21058;-75
2023/06/10 13:18:18;;;;;;;4.78;2.25;;;28.30;99.90;;;;;;1844429;76;21162;-77
2023/06/10 13:20:49;;;;;;;4.90;2.10;;;28.30;99.90;;;;;;1877892;76;21543;-77
2023/06/10 13:23:20;;;;;;;4.42;1.98;;;28.40;99.90;;;;;;1921476;73;21587;-75
2023/06/10 13:25:52;;;;;;;8.18;2.35;;;28.50;99.90;;;;;;1925817;74;21205;-76
2023/06/10 13:28:23;;;;;;;6.12;2.08;;;28.50;99.90;;;;;;1930727;73;21080;-77
2023/06/10 13:30:55;;;;;;;4.50;1.90;;;28.60;99.90;;;;;;1884975;75;21646;-76
2023/06/10 13:33:26;;;;;;;5.70;1.98;;;28.50;99.90;;;;;;1930279;73;21519;-75